Race profile

Haspa Hamburg
Hamburg GER
17 Apr 2016
Road
Marathon
Record quality course
Men: -114.71 sec (-2.71 sec/km)
Women: -198.81 sec (-4.71 sec/km)
Men: 705
Women: 510
Total: 12093
Men: 9388
Women: 2705
$131,995
Hamburg

Results (men)

Finished Time Flags Given name Surname Alternate name Citizenship Birth date Prize money Actions
1 2:06:58 Tesfaye Abera Dibaba ETH 31 Mar 1992 $28,205
2 2:07:20 Philemon Rono Cherop KEN 08 Feb 1991 $16,925
3 2:10:44 Josphat Kiprono Leting KEN 01 Jan 1988 $5,640
4 2:11:49 Abayneh Ayele Woldegiorgis ETH 04 Nov 1987 $2,820
5 2:12:21 Merhawi Kesete ERI 1986 $1,690
6 2:12:45 Ezekiel Chebii Kiptoo KEN 03 Jan 1991 $565
7 2:12:55 Ivan Fernandez Anaya ESP 10 Jun 1988
8 2:13:10 Abdelhadi El Hachimi BEL 15 Dec 1974
9 2:13:17 Benedict-Thabiso Moeng RSA 25 Jan 1983
10 2:13:17 Franck Caldeira deAlmeida BRA 06 Feb 1983
11 2:14:03 Abdihakim Ulad DEN 14 Jun 1991
12 2:14:36 Mumin Gala DJI 06 Sep 1986
13 2:15:40 Federico Bruno ARG 18 Jun 1993
14 2:15:48 Moses Ndiema Kipsiro UGA 02 Sep 1986
15 2:15:57 Jorge Castelblanco PAN 23 Sep 1987
16 2:16:02 Enrique Fernandez Pinedo ESP 03 Aug 1984
17 2:16:09 Jeffrey Hunt AUS 24 Jul 1982
18 2:16:19 Lemawork Ketema Weldearegaye AUT 22 Oct 1985
19 2:16:53 Gabor Jozsa HUN 18 Aug 1983
20 2:16:54 Lars Budolfsen DEN 12 Aug 1980
21 2:16:55 Jiri Homolac CZE 25 Feb 1990
22 2:17:10 Julian Flügel GER 18 Apr 1986 $1,690
23 2:17:29 Gerard-Nicolas Giraldo COL 21 Mar 1989
24 2:17:59 Tiidrek Nurme EST 18 Nov 1985
25 2:18:03 Rafael Santos deNovais BRA 10 Oct 1985
26 2:18:20 David Carver MRI 05 Sep 1987
27 2:18:29 Hirum Mwangi Wandangi KEN 06 Nov 1989
28 2:18:32 Michael Brandenbourg BEL 06 Oct 1986
29 2:18:35 Jose-David Cardona Rios COL 16 Apr 1982
30 2:18:35 Diego-Alberto Colorado COL 31 Aug 1973
31 2:18:44 Jesper Faurschou DEN 01 Jul 1983
32 2:18:52 Ivan daSilva Francisco BRA 30 Sep 1987
33 2:18:52 Nicolae-Alexandru Soare ROM 20 Sep 1991
34 2:19:33 Brad Milosevic AUS 26 May 1989
35 2:20:17 Yesid-Alexander Orjuela COL 18 Dec 1987
38 2:20:46 Pedro Ribeiro POR 25 Mar 1981
41 2:22:06 Willem VanSchuerbeeck BEL 23 Oct 1984
45 2:23:55 Darius Sadeckas LTU 29 Jun 1979
46 2:24:13 Angel Chasi ECU 18 Apr 1987
47 2:24:52 Hendrick Ramaala RSA 02 Feb 1972
59 2:29:29 Benjamin Barbier BEL 23 Nov 1982
69 2:33:43 Marcel Bräutigam GER 31 Jul 1989
73 2:34:12 Marko Vaittinen FIN 13 Nov 1970
76 2:35:37 Jeppe Farsøht DEN 15 Sep 1978
78 2:35:53 Arturs Bareikis LAT 06 Jun 1986
94 2:37:56 Paul Buckley IRL 07 Feb 1976
107 2:39:38 Hans Mygind Anderson DEN 1965
110 2:40:04 Klaus Mannweiler GER 1966
231 2:50:43 Thomas Hansen GER 16 Nov 1957
940? 4:03:02 Jose Molero Membrilla GER 18 Mar 1941

Results (women)

Finished Time Flags Given name Surname Alternate name Citizenship Birth date Prize money Actions
1 2:21:54 Meselech Melkamu Haileyesus ETH 19 Apr 1985 $50,770
2 2:26:26 Meseret Hailu Debele ETH 12 Sep 1990 $8,460
3 2:27:50 Anja Scherl Schneider GER 12 Apr 1986 $9,025
4 2:28:26 Monika-Mariola Stefanowicz Drybulska POL 15 May 1980 $2,820
5 2:29:27 Madai Perez Carillo MEX 02 Feb 1980 $1,690
6 2:29:36 Kellys-Yesenia Arias Figueroa COL 03 Jul 1989 $565
7 2:30:08 Sarah Chepchirchir KEN 27 Jul 1984
8 2:31:23 Adriana-Cristina Aparecida daSilva BRA 22 Jul 1981
9 2:32:40 Megeretu Geletu Ifa ETH 1991
10 2:33:43 Mona Stockhecke GER 11 Oct 1983 $1,130
11 2:34:12 Anne-Mari Hyryläinen FIN 15 Aug 1978
12 2:35:13 Angie-Rocio Orjuela COL 27 Nov 1990
13 2:36:54 Louise Batting Langelund DEN 07 Feb 1978
14 2:37:09 Manuela Soccol BEL 16 Jun 1988
15 2:40:17 Angela-Maria Figueroa Palacios COL 28 Jun 1984
16 2:42:11 Leila Luik EST 14 Oct 1985
17 2:43:47 Rosmery Quispe BOL 20 Aug 1983
18 2:44:00 Roselaine deSouza Silva Benites BRA 27 May 1981
19 2:46:52 Ivana Sekyrova CZE 13 Oct 1971
20 2:48:38 Minna Lamminen Nummela FIN 23 Oct 1982
21 2:48:50 Josephine Ambjörnsson SWE 28 May 1983
22 2:49:14 Mari Boikov EST 12 Apr 1988
23 2:49:28 Juliane Meyer GER 1988
24 2:52:51 Andrea Aparecida Hessel BRA 08 Oct 1984
25 2:53:47 Sari Juuti FIN 14 Feb 1973
39 3:00:39 Pia-Joan Sørensen DEN 1967
41 3:01:27 Juliet Champion ENG 20 Oct 1979
42 3:01:43 Marcela Rambova CZE 1974
49 3:06:00 Inger-Dagne Saanum NOR 08 Oct 1963
53 3:08:57 Nina-Katja Weiss Madsen DEN 1965
124 3:24:35 Antje Wietscher GER 03 Dec 1956
127 3:25:37 Silke Gielen GER 22 Sep 1957
148 3:28:34 Rita Nowottny Hupka GER 1959
905 4:08:11 Helga Miketta GER 23 Mar 1941
915? 4:38:58 Birgit-Valeur Bamberg DEN 10 Nov 1940
970? 6:27:52 Rosemarie vonKocemba GER 29 Sep 1944